sensor_id;sensor_type;location;lat;lon;timestamp;temperature;humidity
35445;DHT22;21562;49.476;6.086;2023-07-22T00:01:00;17.80;99.90
35445;DHT22;21562;49.476;6.086;2023-07-22T00:03:26;17.50;99.90
35445;DHT22;21562;49.476;6.086;2023-07-22T00:06:03;17.20;99.90
35445;DHT22;21562;49.476;6.086;2023-07-22T00:08:29;17.30;99.90
35445;DHT22;21562;49.476;6.086;2023-07-22T00:10:54;17.00;99.90
35445;DHT22;21562;49.476;6.086;2023-07-22T00:13:20;16.70;99.90
35445;DHT22;21562;49.476;6.086;2023-07-22T00:15:46;16.90;99.90
35445;DHT22;21562;49.476;6.086;2023-07-22T00:18:11;17.10;99.90
35445;DHT22;21562;49.476;6.086;2023-07-22T00:20:37;17.20;99.90
35445;DHT22;21562;49.476;6.086;2023-07-22T00:23:02;17.00;99.90
35445;DHT22;21562;49.476;6.086;2023-07-22T00:25:28;17.00;99.90
35445;DHT22;21562;49.476;6.086;2023-07-22T00:27:54;17.20;99.90
35445;DHT22;21562;49.476;6.086;2023-07-22T00:30:19;17.20;99.90
35445;DHT22;21562;49.476;6.086;2023-07-22T00:32:45;17.30;99.90
35445;DHT22;21562;49.476;6.086;2023-07-22T00:35:10;17.40;99.90
35445;DHT22;21562;49.476;6.086;2023-07-22T00:37:37;17.20;99.90
35445;DHT22;21562;49.476;6.086;2023-07-22T00:40:02;17.00;99.90
35445;DHT22;21562;49.476;6.086;2023-07-22T00:42:37;16.80;99.90
35445;DHT22;21562;49.476;6.086;2023-07-22T00:45:03;16.80;99.90
35445;DHT22;21562;49.476;6.086;2023-07-22T00:47:29;16.80;99.90
35445;DHT22;21562;49.476;6.086;2023-07-22T00:49:54;16.60;99.90
35445;DHT22;21562;49.476;6.086;2023-07-22T00:52:21;16.60;99.90
35445;DHT22;21562;49.476;6.086;2023-07-22T00:54:47;16.60;99.90
35445;DHT22;21562;49.476;6.086;2023-07-22T00:57:12;16.40;99.90
35445;DHT22;21562;49.476;6.086;2023-07-22T00:59:39;16.30;99.90
35445;DHT22;21562;49.476;6.086;2023-07-22T01:02:06;16.20;99.90
35445;DHT22;21562;49.476;6.086;2023-07-22T01:04:33;16.10;99.90
35445;DHT22;21562;49.476;6.086;2023-07-22T01:06:59;16.10;99.90
35445;DHT22;21562;49.476;6.086;2023-07-22T01:09:26;16.00;99.90
35445;DHT22;21562;49.476;6.086;2023-07-22T01:11:52;16.10;99.90
35445;DHT22;21562;49.476;6.086;2023-07-22T01:14:17;16.20;99.90
35445;DHT22;21562;49.476;6.086;2023-07-22T01:16:43;16.40;99.90
35445;DHT22;21562;49.476;6.086;2023-07-22T01:19:09;16.50;99.90
35445;DHT22;21562;49.476;6.086;2023-07-22T01:21:36;16.70;99.90
35445;DHT22;21562;49.476;6.086;2023-07-22T01:24:02;16.50;99.90
35445;DHT22;21562;49.476;6.086;2023-07-22T01:26:28;16.50;99.90
35445;DHT22;21562;49.476;6.086;2023-07-22T01:29:02;16.60;99.90
35445;DHT22;21562;49.476;6.086;2023-07-22T01:31:28;16.60;99.90
35445;DHT22;21562;49.476;6.086;2023-07-22T01:33:54;16.40;99.90
35445;DHT22;21562;49.476;6.086;2023-07-22T01:36:19;16.00;99.90
35445;DHT22;21562;49.476;6.086;2023-07-22T01:38:45;16.00;99.90
35445;DHT22;21562;49.476;6.086;2023-07-22T01:41:11;16.10;99.90
35445;DHT22;21562;49.476;6.086;2023-07-22T01:43:36;16.20;99.90
35445;DHT22;21562;49.476;6.086;2023-07-22T01:46:02;16.40;99.90
35445;DHT22;21562;49.476;6.086;2023-07-22T01:48:27;16.40;99.90
35445;DHT22;21562;49.476;6.086;2023-07-22T01:50:53;16.20;99.90
35445;DHT22;21562;49.476;6.086;2023-07-22T01:53:19;16.20;99.90
35445;DHT22;21562;49.476;6.086;2023-07-22T01:55:45;16.00;99.90
35445;DHT22;21562;49.476;6.086;2023-07-22T01:58:11;16.00;99.90
35445;DHT22;21562;49.476;6.086;2023-07-22T02:00:37;16.00;99.90
35445;DHT22;21562;49.476;6.086;2023-07-22T02:03:02;16.10;99.90
35445;DHT22;21562;49.476;6.086;2023-07-22T02:05:29;15.90;99.90
35445;DHT22;21562;49.476;6.086;2023-07-22T02:07:56;16.00;99.90
35445;DHT22;21562;49.476;6.086;2023-07-22T02:10:21;15.90;99.90
35445;DHT22;21562;49.476;6.086;2023-07-22T02:12:47;15.60;99.90
35445;DHT22;21562;49.476;6.086;2023-07-22T02:15:13;15.50;99.90
35445;DHT22;21562;49.476;6.086;2023-07-22T02:17:38;15.50;99.90
35445;DHT22;21562;49.476;6.086;2023-07-22T02:20:05;15.80;99.90
35445;DHT22;21562;49.476;6.086;2023-07-22T02:22:31;15.90;99.90
35445;DHT22;21562;49.476;6.086;2023-07-22T02:24:56;16.00;99.90
35445;DHT22;21562;49.476;6.086;2023-07-22T02:27:22;16.30;99.90
35445;DHT22;21562;49.476;6.086;2023-07-22T02:29:47;16.40;99.90
35445;DHT22;21562;49.476;6.086;2023-07-22T02:32:13;16.50;99.90
35445;DHT22;21562;49.476;6.086;2023-07-22T02:34:39;16.70;99.90
35445;DHT22;21562;49.476;6.086;2023-07-22T02:37:05;16.80;99.90
35445;DHT22;21562;49.476;6.086;2023-07-22T02:39:30;16.50;99.90
35445;DHT22;21562;49.476;6.086;2023-07-22T02:41:56;16.20;99.90
35445;DHT22;21562;49.476;6.086;2023-07-22T02:44:21;16.00;99.90
35445;DHT22;21562;49.476;6.086;2023-07-22T02:46:47;15.90;99.90
35445;DHT22;21562;49.476;6.086;2023-07-22T02:49:13;15.80;99.90
35445;DHT22;21562;49.476;6.086;2023-07-22T02:51:39;15.70;99.90
35445;DHT22;21562;49.476;6.086;2023-07-22T02:54:05;15.50;99.90
35445;DHT22;21562;49.476;6.086;2023-07-22T02:56:30;15.60;99.90
35445;DHT22;21562;49.476;6.086;2023-07-22T02:58:56;15.50;99.90
35445;DHT22;21562;49.476;6.086;2023-07-22T03:01:21;15.50;99.90
35445;DHT22;21562;49.476;6.086;2023-07-22T03:03:47;15.40;99.90
35445;DHT22;21562;49.476;6.086;2023-07-22T03:06:13;15.40;99.90
35445;DHT22;21562;49.476;6.086;2023-07-22T03:08:39;15.50;99.90
35445;DHT22;21562;49.476;6.086;2023-07-22T03:11:05;15.50;99.90
35445;DHT22;21562;49.476;6.086;2023-07-22T03:13:31;15.30;99.90
35445;DHT22;21562;49.476;6.086;2023-07-22T03:15:57;15.30;99.90
35445;DHT22;21562;49.476;6.086;2023-07-22T03:18:23;15.20;99.90
35445;DHT22;21562;49.476;6.086;2023-07-22T03:20:49;15.20;99.90
35445;DHT22;21562;49.476;6.086;2023-07-22T03:23:15;15.20;99.90
35445;DHT22;21562;49.476;6.086;2023-07-22T03:25:40;15.30;99.90
35445;DHT22;21562;49.476;6.086;2023-07-22T03:28:06;15.50;99.90
35445;DHT22;21562;49.476;6.086;2023-07-22T03:30:33;15.60;99.90
35445;DHT22;21562;49.476;6.086;2023-07-22T03:32:58;15.70;99.90
35445;DHT22;21562;49.476;6.086;2023-07-22T03:35:24;15.70;99.90
35445;DHT22;21562;49.476;6.086;2023-07-22T03:37:50;15.70;99.90
35445;DHT22;21562;49.476;6.086;2023-07-22T03:40:15;15.70;99.90
35445;DHT22;21562;49.476;6.086;2023-07-22T03:42:55;15.80;99.90
35445;DHT22;21562;49.476;6.086;2023-07-22T03:45:21;15.80;99.90
35445;DHT22;21562;49.476;6.086;2023-07-22T03:47:52;15.80;99.90
35445;DHT22;21562;49.476;6.086;2023-07-22T03:50:18;15.90;99.90
35445;DHT22;21562;49.476;6.086;2023-07-22T03:52:44;16.00;99.90
35445;DHT22;21562;49.476;6.086;2023-07-22T03:55:10;16.00;99.90
35445;DHT22;21562;49.476;6.086;2023-07-22T03:57:36;15.90;99.90
35445;DHT22;21562;49.476;6.086;2023-07-22T04:00:02;15.80;99.90
35445;DHT22;21562;49.476;6.086;2023-07-22T04:02:29;15.80;99.90
35445;DHT22;21562;49.476;6.086;2023-07-22T04:04:55;15.80;99.90
35445;DHT22;21562;49.476;6.086;2023-07-22T04:07:21;15.90;99.90
35445;DHT22;21562;49.476;6.086;2023-07-22T04:09:47;16.10;99.90
35445;DHT22;21562;49.476;6.086;2023-07-22T04:12:13;16.10;99.90
35445;DHT22;21562;49.476;6.086;2023-07-22T04:14:39;16.20;99.90
35445;DHT22;21562;49.476;6.086;2023-07-22T04:17:05;16.00;99.90
35445;DHT22;21562;49.476;6.086;2023-07-22T04:19:31;16.00;99.90
35445;DHT22;21562;49.476;6.086;2023-07-22T04:21:56;15.90;99.90
35445;DHT22;21562;49.476;6.086;2023-07-22T04:24:22;15.80;99.90
35445;DHT22;21562;49.476;6.086;2023-07-22T04:26:48;15.90;99.90
35445;DHT22;21562;49.476;6.086;2023-07-22T04:29:14;16.20;99.90
35445;DHT22;21562;49.476;6.086;2023-07-22T04:31:39;16.30;99.90
35445;DHT22;21562;49.476;6.086;2023-07-22T04:34:05;16.30;99.90
35445;DHT22;21562;49.476;6.086;2023-07-22T04:36:32;16.40;99.90
35445;DHT22;21562;49.476;6.086;2023-07-22T04:38:57;16.50;99.90
35445;DHT22;21562;49.476;6.086;2023-07-22T04:41:23;16.60;99.90
35445;DHT22;21562;49.476;6.086;2023-07-22T04:43:50;16.60;99.90
35445;DHT22;21562;49.476;6.086;2023-07-22T04:46:17;16.80;99.90
35445;DHT22;21562;49.476;6.086;2023-07-22T04:48:42;17.10;99.90
35445;DHT22;21562;49.476;6.086;2023-07-22T04:51:08;17.40;99.90
35445;DHT22;21562;49.476;6.086;2023-07-22T04:53:34;17.50;99.90
35445;DHT22;21562;49.476;6.086;2023-07-22T04:55:59;17.70;99.90
35445;DHT22;21562;49.476;6.086;2023-07-22T04:58:25;17.80;99.90
35445;DHT22;21562;49.476;6.086;2023-07-22T05:00:50;17.90;99.90
35445;DHT22;21562;49.476;6.086;2023-07-22T05:03:17;18.10;99.90
35445;DHT22;21562;49.476;6.086;2023-07-22T05:05:43;18.30;99.90
35445;DHT22;21562;49.476;6.086;2023-07-22T05:08:09;18.30;99.90
35445;DHT22;21562;49.476;6.086;2023-07-22T05:10:36;18.20;99.90
35445;DHT22;21562;49.476;6.086;2023-07-22T05:13:03;18.00;99.90
35445;DHT22;21562;49.476;6.086;2023-07-22T05:15:29;17.90;99.90
35445;DHT22;21562;49.476;6.086;2023-07-22T05:17:54;17.80;99.90
35445;DHT22;21562;49.476;6.086;2023-07-22T05:20:20;17.90;99.90
35445;DHT22;21562;49.476;6.086;2023-07-22T05:22:46;18.10;99.90
35445;DHT22;21562;49.476;6.086;2023-07-22T05:25:11;18.10;99.90
35445;DHT22;21562;49.476;6.086;2023-07-22T05:27:37;18.00;99.90
35445;DHT22;21562;49.476;6.086;2023-07-22T05:30:03;17.70;99.90
35445;DHT22;21562;49.476;6.086;2023-07-22T05:32:29;17.70;99.90
35445;DHT22;21562;49.476;6.086;2023-07-22T05:34:57;17.80;99.90
35445;DHT22;21562;49.476;6.086;2023-07-22T05:37:24;18.10;99.90
35445;DHT22;21562;49.476;6.086;2023-07-22T05:39:50;18.30;99.90
35445;DHT22;21562;49.476;6.086;2023-07-22T05:42:17;18.60;99.90
35445;DHT22;21562;49.476;6.086;2023-07-22T05:44:43;18.70;99.90
35445;DHT22;21562;49.476;6.086;2023-07-22T05:47:08;18.80;99.90
35445;DHT22;21562;49.476;6.086;2023-07-22T05:49:34;18.60;99.90
35445;DHT22;21562;49.476;6.086;2023-07-22T05:52:00;18.60;99.90
35445;DHT22;21562;49.476;6.086;2023-07-22T05:54:25;18.60;99.90
35445;DHT22;21562;49.476;6.086;2023-07-22T05:56:52;18.70;99.90
35445;DHT22;21562;49.476;6.086;2023-07-22T05:59:17;18.60;99.90
35445;DHT22;21562;49.476;6.086;2023-07-22T06:01:43;18.50;99.90
35445;DHT22;21562;49.476;6.086;2023-07-22T06:04:09;18.50;99.90
35445;DHT22;21562;49.476;6.086;2023-07-22T06:06:35;18.60;99.90
35445;DHT22;21562;49.476;6.086;2023-07-22T06:09:01;18.80;99.90
35445;DHT22;21562;49.476;6.086;2023-07-22T06:11:27;18.90;99.90
35445;DHT22;21562;49.476;6.086;2023-07-22T06:13:54;19.00;99.90
35445;DHT22;21562;49.476;6.086;2023-07-22T06:16:19;18.90;99.90
35445;DHT22;21562;49.476;6.086;2023-07-22T06:18:45;19.10;99.90
35445;DHT22;21562;49.476;6.086;2023-07-22T06:21:10;19.20;99.90
35445;DHT22;21562;49.476;6.086;2023-07-22T06:23:36;19.10;99.90
35445;DHT22;21562;49.476;6.086;2023-07-22T06:26:02;19.20;99.90
35445;DHT22;21562;49.476;6.086;2023-07-22T06:28:28;19.20;99.90
35445;DHT22;21562;49.476;6.086;2023-07-22T06:30:53;19.20;99.90
35445;DHT22;21562;49.476;6.086;2023-07-22T06:33:19;18.80;99.90
35445;DHT22;21562;49.476;6.086;2023-07-22T06:35:45;18.90;99.90
35445;DHT22;21562;49.476;6.086;2023-07-22T06:38:11;18.90;99.90
35445;DHT22;21562;49.476;6.086;2023-07-22T06:40:36;19.00;99.90
35445;DHT22;21562;49.476;6.086;2023-07-22T06:43:02;18.60;99.90
35445;DHT22;21562;49.476;6.086;2023-07-22T06:45:27;18.50;99.90
35445;DHT22;21562;49.476;6.086;2023-07-22T06:47:53;18.40;99.90
35445;DHT22;21562;49.476;6.086;2023-07-22T06:50:19;19.10;99.90
35445;DHT22;21562;49.476;6.086;2023-07-22T06:52:44;20.00;99.90
35445;DHT22;21562;49.476;6.086;2023-07-22T06:55:10;21.10;99.90
35445;DHT22;21562;49.476;6.086;2023-07-22T06:57:36;21.30;99.90
35445;DHT22;21562;49.476;6.086;2023-07-22T07:00:02;21.40;99.90
35445;DHT22;21562;49.476;6.086;2023-07-22T07:02:27;21.60;99.90
35445;DHT22;21562;49.476;6.086;2023-07-22T07:04:53;21.80;99.90
35445;DHT22;21562;49.476;6.086;2023-07-22T07:07:19;21.80;99.90
35445;DHT22;21562;49.476;6.086;2023-07-22T07:09:44;22.20;99.90
35445;DHT22;21562;49.476;6.086;2023-07-22T07:12:10;22.50;99.90
35445;DHT22;21562;49.476;6.086;2023-07-22T07:14:36;22.60;99.90
35445;DHT22;21562;49.476;6.086;2023-07-22T07:17:02;22.80;98.70
35445;DHT22;21562;49.476;6.086;2023-07-22T07:19:28;22.40;99.20
35445;DHT22;21562;49.476;6.086;2023-07-22T07:21:53;22.00;99.90
35445;DHT22;21562;49.476;6.086;2023-07-22T07:24:19;21.60;99.90
35445;DHT22;21562;49.476;6.086;2023-07-22T07:26:45;21.80;99.60
35445;DHT22;21562;49.476;6.086;2023-07-22T07:29:11;21.60;99.90
35445;DHT22;21562;49.476;6.086;2023-07-22T07:31:38;21.10;99.50
35445;DHT22;21562;49.476;6.086;2023-07-22T07:34:03;21.40;99.10
35445;DHT22;21562;49.476;6.086;2023-07-22T07:36:29;20.70;99.90
35445;DHT22;21562;49.476;6.086;2023-07-22T07:38:55;20.90;99.90
35445;DHT22;21562;49.476;6.086;2023-07-22T07:41:21;21.00;99.90
35445;DHT22;21562;49.476;6.086;2023-07-22T07:43:46;21.60;99.90
35445;DHT22;21562;49.476;6.086;2023-07-22T07:46:20;21.70;99.90
35445;DHT22;21562;49.476;6.086;2023-07-22T07:48:55;21.30;97.40
35445;DHT22;21562;49.476;6.086;2023-07-22T07:51:22;20.90;98.00
35445;DHT22;21562;49.476;6.086;2023-07-22T07:53:49;20.80;98.50
35445;DHT22;21562;49.476;6.086;2023-07-22T07:56:16;21.00;98.60
35445;DHT22;21562;49.476;6.086;2023-07-22T07:58:44;21.00;98.40
35445;DHT22;21562;49.476;6.086;2023-07-22T08:01:10;21.00;98.60
35445;DHT22;21562;49.476;6.086;2023-07-22T08:03:37;21.10;99.90
35445;DHT22;21562;49.476;6.086;2023-07-22T08:06:03;21.80;99.50
35445;DHT22;21562;49.476;6.086;2023-07-22T08:08:29;21.70;97.70
35445;DHT22;21562;49.476;6.086;2023-07-22T08:11:15;22.00;99.30
35445;DHT22;21562;49.476;6.086;2023-07-22T08:13:42;21.70;97.70
35445;DHT22;21562;49.476;6.086;2023-07-22T08:16:10;21.40;96.80
35445;DHT22;21562;49.476;6.086;2023-07-22T08:18:36;21.40;96.50
35445;DHT22;21562;49.476;6.086;2023-07-22T08:21:06;21.00;97.60
35445;DHT22;21562;49.476;6.086;2023-07-22T08:23:33;21.00;98.50
35445;DHT22;21562;49.476;6.086;2023-07-22T08:25:58;21.00;97.20
35445;DHT22;21562;49.476;6.086;2023-07-22T08:28:24;20.80;97.50
35445;DHT22;21562;49.476;6.086;2023-07-22T08:30:50;20.90;97.40
35445;DHT22;21562;49.476;6.086;2023-07-22T08:33:19;21.00;98.90
35445;DHT22;21562;49.476;6.086;2023-07-22T08:35:44;21.40;98.30
35445;DHT22;21562;49.476;6.086;2023-07-22T08:38:13;21.50;96.40
35445;DHT22;21562;49.476;6.086;2023-07-22T08:40:40;21.20;96.70
35445;DHT22;21562;49.476;6.086;2023-07-22T08:43:08;21.40;96.90
35445;DHT22;21562;49.476;6.086;2023-07-22T08:45:35;21.80;96.30
35445;DHT22;21562;49.476;6.086;2023-07-22T08:48:09;22.10;96.50
35445;DHT22;21562;49.476;6.086;2023-07-22T08:50:55;22.10;95.90
35445;DHT22;21562;49.476;6.086;2023-07-22T08:53:21;21.90;95.70
35445;DHT22;21562;49.476;6.086;2023-07-22T08:55:49;22.00;96.20
35445;DHT22;21562;49.476;6.086;2023-07-22T08:58:16;22.10;96.70
35445;DHT22;21562;49.476;6.086;2023-07-22T09:00:42;22.20;95.10
35445;DHT22;21562;49.476;6.086;2023-07-22T09:03:09;22.00;96.70
35445;DHT22;21562;49.476;6.086;2023-07-22T09:05:35;21.90;96.10
35445;DHT22;21562;49.476;6.086;2023-07-22T09:08:02;21.90;95.20
35445;DHT22;21562;49.476;6.086;2023-07-22T09:10:28;22.10;95.50
35445;DHT22;21562;49.476;6.086;2023-07-22T09:12:54;21.70;96.20
35445;DHT22;21562;49.476;6.086;2023-07-22T09:15:20;21.50;95.90
35445;DHT22;21562;49.476;6.086;2023-07-22T09:17:46;21.70;96.00
35445;DHT22;21562;49.476;6.086;2023-07-22T09:20:13;21.60;96.40
35445;DHT22;21562;49.476;6.086;2023-07-22T09:22:47;21.50;95.90
35445;DHT22;21562;49.476;6.086;2023-07-22T09:25:16;22.00;95.70
35445;DHT22;21562;49.476;6.086;2023-07-22T09:27:43;21.90;95.90
35445;DHT22;21562;49.476;6.086;2023-07-22T09:30:33;22.40;96.70
35445;DHT22;21562;49.476;6.086;2023-07-22T09:33:01;22.30;95.50
35445;DHT22;21562;49.476;6.086;2023-07-22T09:35:30;22.10;96.10
35445;DHT22;21562;49.476;6.086;2023-07-22T09:37:56;22.10;95.60
35445;DHT22;21562;49.476;6.086;2023-07-22T09:40:24;22.30;95.60
35445;DHT22;21562;49.476;6.086;2023-07-22T09:42:55;22.50;94.40
35445;DHT22;21562;49.476;6.086;2023-07-22T09:45:25;22.40;94.50
35445;DHT22;21562;49.476;6.086;2023-07-22T09:47:52;22.00;95.30
35445;DHT22;21562;49.476;6.086;2023-07-22T09:50:19;21.90;95.30
35445;DHT22;21562;49.476;6.086;2023-07-22T09:52:50;21.90;95.60
35445;DHT22;21562;49.476;6.086;2023-07-22T09:55:18;22.00;95.10
35445;DHT22;21562;49.476;6.086;2023-07-22T09:57:46;21.90;95.50
35445;DHT22;21562;49.476;6.086;2023-07-22T10:00:14;22.00;95.50
35445;DHT22;21562;49.476;6.086;2023-07-22T10:02:41;21.90;96.10
35445;DHT22;21562;49.476;6.086;2023-07-22T10:05:12;22.00;95.30
35445;DHT22;21562;49.476;6.086;2023-07-22T10:07:45;21.50;96.00
35445;DHT22;21562;49.476;6.086;2023-07-22T10:10:17;21.70;96.30
35445;DHT22;21562;49.476;6.086;2023-07-22T10:12:44;21.60;96.50
35445;DHT22;21562;49.476;6.086;2023-07-22T10:15:11;21.80;96.40
35445;DHT22;21562;49.476;6.086;2023-07-22T10:17:38;21.80;97.00
35445;DHT22;21562;49.476;6.086;2023-07-22T10:20:04;22.00;96.60
35445;DHT22;21562;49.476;6.086;2023-07-22T10:22:37;22.20;96.30
35445;DHT22;21562;49.476;6.086;2023-07-22T10:25:06;22.20;96.00
35445;DHT22;21562;49.476;6.086;2023-07-22T10:27:34;22.00;96.00
35445;DHT22;21562;49.476;6.086;2023-07-22T10:30:01;21.90;96.30
35445;DHT22;21562;49.476;6.086;2023-07-22T10:32:43;21.90;96.70
35445;DHT22;21562;49.476;6.086;2023-07-22T10:35:17;22.10;95.80
35445;DHT22;21562;49.476;6.086;2023-07-22T10:37:45;21.80;96.00
35445;DHT22;21562;49.476;6.086;2023-07-22T10:40:26;21.80;96.30
35445;DHT22;21562;49.476;6.086;2023-07-22T10:43:03;22.00;95.80
35445;DHT22;21562;49.476;6.086;2023-07-22T10:45:33;22.00;96.30
35445;DHT22;21562;49.476;6.086;2023-07-22T10:48:08;21.70;96.30
35445;DHT22;21562;49.476;6.086;2023-07-22T10:50:50;21.90;96.20
35445;DHT22;21562;49.476;6.086;2023-07-22T10:56:15;21.80;96.60
35445;DHT22;21562;49.476;6.086;2023-07-22T11:04:23;22.00;96.10
35445;DHT22;21562;49.476;6.086;2023-07-22T11:07:04;22.60;96.80
35445;DHT22;21562;49.476;6.086;2023-07-22T11:12:16;22.50;95.50
35445;DHT22;21562;49.476;6.086;2023-07-22T11:14:47;22.40;95.00
35445;DHT22;21562;49.476;6.086;2023-07-22T11:17:13;22.60;94.80
35445;DHT22;21562;49.476;6.086;2023-07-22T11:19:39;22.00;95.40
35445;DHT22;21562;49.476;6.086;2023-07-22T11:22:06;21.90;95.40
35445;DHT22;21562;49.476;6.086;2023-07-22T11:24:35;22.00;95.90
35445;DHT22;21562;49.476;6.086;2023-07-22T11:27:06;21.80;95.20
35445;DHT22;21562;49.476;6.086;2023-07-22T11:29:34;22.20;95.40
35445;DHT22;21562;49.476;6.086;2023-07-22T11:32:02;22.30;94.90
35445;DHT22;21562;49.476;6.086;2023-07-22T11:34:28;22.40;96.50
35445;DHT22;21562;49.476;6.086;2023-07-22T11:36:55;22.80;94.70
35445;DHT22;21562;49.476;6.086;2023-07-22T11:39:22;22.70;94.90
35445;DHT22;21562;49.476;6.086;2023-07-22T11:41:49;22.50;94.80
35445;DHT22;21562;49.476;6.086;2023-07-22T11:44:20;22.50;95.10
35445;DHT22;21562;49.476;6.086;2023-07-22T11:47:07;22.30;95.10
35445;DHT22;21562;49.476;6.086;2023-07-22T11:49:37;22.10;95.10
35445;DHT22;21562;49.476;6.086;2023-07-22T11:52:05;22.20;95.30
35445;DHT22;21562;49.476;6.086;2023-07-22T11:54:34;22.20;94.90
35445;DHT22;21562;49.476;6.086;2023-07-22T11:57:22;22.50;95.40
35445;DHT22;21562;49.476;6.086;2023-07-22T11:59:50;22.80;95.10
35445;DHT22;21562;49.476;6.086;2023-07-22T12:02:18;22.50;94.80
35445;DHT22;21562;49.476;6.086;2023-07-22T12:04:55;22.50;95.10
35445;DHT22;21562;49.476;6.086;2023-07-22T12:07:42;22.50;95.00
35445;DHT22;21562;49.476;6.086;2023-07-22T12:10:08;22.70;95.30
35445;DHT22;21562;49.476;6.086;2023-07-22T12:12:45;22.70;95.80
35445;DHT22;21562;49.476;6.086;2023-07-22T12:15:12;23.00;94.70
35445;DHT22;21562;49.476;6.086;2023-07-22T12:17:55;22.80;95.40
35445;DHT22;21562;49.476;6.086;2023-07-22T12:20:29;22.80;94.80
35445;DHT22;21562;49.476;6.086;2023-07-22T12:22:56;22.90;94.50
35445;DHT22;21562;49.476;6.086;2023-07-22T12:25:22;22.80;94.80
35445;DHT22;21562;49.476;6.086;2023-07-22T12:27:48;22.90;94.60
35445;DHT22;21562;49.476;6.086;2023-07-22T12:30:13;23.00;94.80
35445;DHT22;21562;49.476;6.086;2023-07-22T12:32:40;22.70;94.50
35445;DHT22;21562;49.476;6.086;2023-07-22T12:35:06;22.80;96.10
35445;DHT22;21562;49.476;6.086;2023-07-22T12:37:32;23.00;94.70
35445;DHT22;21562;49.476;6.086;2023-07-22T12:39:58;22.90;94.50
35445;DHT22;21562;49.476;6.086;2023-07-22T12:42:23;22.90;94.40
35445;DHT22;21562;49.476;6.086;2023-07-22T12:44:49;22.70;95.00
35445;DHT22;21562;49.476;6.086;2023-07-22T12:47:15;23.00;94.20
35445;DHT22;21562;49.476;6.086;2023-07-22T12:49:40;23.30;95.30
35445;DHT22;21562;49.476;6.086;2023-07-22T12:52:06;23.80;94.70
35445;DHT22;21562;49.476;6.086;2023-07-22T12:54:35;23.70;94.10
35445;DHT22;21562;49.476;6.086;2023-07-22T12:57:01;23.30;94.30
35445;DHT22;21562;49.476;6.086;2023-07-22T12:59:27;23.20;94.60
35445;DHT22;21562;49.476;6.086;2023-07-22T13:01:57;23.30;94.50
35445;DHT22;21562;49.476;6.086;2023-07-22T13:04:26;23.70;94.00
35445;DHT22;21562;49.476;6.086;2023-07-22T13:06:55;24.10;93.60
35445;DHT22;21562;49.476;6.086;2023-07-22T13:09:20;24.10;93.20
35445;DHT22;21562;49.476;6.086;2023-07-22T13:11:46;23.70;93.20
35445;DHT22;21562;49.476;6.086;2023-07-22T13:14:12;23.40;93.70
35445;DHT22;21562;49.476;6.086;2023-07-22T13:16:38;23.50;93.80
35445;DHT22;21562;49.476;6.086;2023-07-22T13:19:03;23.30;93.50
35445;DHT22;21562;49.476;6.086;2023-07-22T13:21:29;23.30;93.90
35445;DHT22;21562;49.476;6.086;2023-07-22T13:23:55;23.10;93.60
35445;DHT22;21562;49.476;6.086;2023-07-22T13:26:21;23.30;93.30
35445;DHT22;21562;49.476;6.086;2023-07-22T13:28:46;23.10;93.20
35445;DHT22;21562;49.476;6.086;2023-07-22T13:31:12;23.10;93.30
35445;DHT22;21562;49.476;6.086;2023-07-22T13:33:38;23.40;93.30
35445;DHT22;21562;49.476;6.086;2023-07-22T13:36:03;23.70;93.30
35445;DHT22;21562;49.476;6.086;2023-07-22T13:38:29;23.70;93.00
35445;DHT22;21562;49.476;6.086;2023-07-22T13:40:55;23.60;93.20
35445;DHT22;21562;49.476;6.086;2023-07-22T13:43:20;23.60;92.80
35445;DHT22;21562;49.476;6.086;2023-07-22T13:45:46;23.80;92.50
35445;DHT22;21562;49.476;6.086;2023-07-22T13:48:11;24.00;92.50
35445;DHT22;21562;49.476;6.086;2023-07-22T13:50:37;24.00;92.70
35445;DHT22;21562;49.476;6.086;2023-07-22T13:53:03;24.10;92.90
35445;DHT22;21562;49.476;6.086;2023-07-22T13:55:29;24.50;92.20
35445;DHT22;21562;49.476;6.086;2023-07-22T13:57:54;24.60;92.00
35445;DHT22;21562;49.476;6.086;2023-07-22T14:00:20;24.20;91.80
35445;DHT22;21562;49.476;6.086;2023-07-22T14:02:46;23.80;92.50
35445;DHT22;21562;49.476;6.086;2023-07-22T14:05:11;23.80;92.40
35445;DHT22;21562;49.476;6.086;2023-07-22T14:07:38;24.10;92.50
35445;DHT22;21562;49.476;6.086;2023-07-22T14:10:05;24.20;92.00
35445;DHT22;21562;49.476;6.086;2023-07-22T14:12:31;24.30;92.10
35445;DHT22;21562;49.476;6.086;2023-07-22T14:14:57;24.00;92.10
35445;DHT22;21562;49.476;6.086;2023-07-22T14:17:22;24.00;92.30
35445;DHT22;21562;49.476;6.086;2023-07-22T14:19:48;23.90;92.20
35445;DHT22;21562;49.476;6.086;2023-07-22T14:22:14;23.70;92.40
35445;DHT22;21562;49.476;6.086;2023-07-22T14:24:39;23.80;92.60
35445;DHT22;21562;49.476;6.086;2023-07-22T14:27:05;24.00;92.00
35445;DHT22;21562;49.476;6.086;2023-07-22T14:29:31;24.20;93.20
35445;DHT22;21562;49.476;6.086;2023-07-22T14:31:56;24.20;91.90
35445;DHT22;21562;49.476;6.086;2023-07-22T14:34:23;24.20;92.00
35445;DHT22;21562;49.476;6.086;2023-07-22T14:36:48;24.50;91.40
35445;DHT22;21562;49.476;6.086;2023-07-22T14:39:15;24.50;91.50
35445;DHT22;21562;49.476;6.086;2023-07-22T14:41:41;24.00;91.70
35445;DHT22;21562;49.476;6.086;2023-07-22T14:44:09;23.90;92.40
35445;DHT22;21562;49.476;6.086;2023-07-22T14:46:34;24.20;92.10
35445;DHT22;21562;49.476;6.086;2023-07-22T14:49:01;24.30;91.70
35445;DHT22;21562;49.476;6.086;2023-07-22T14:51:26;24.20;91.90
35445;DHT22;21562;49.476;6.086;2023-07-22T14:53:52;24.10;92.30
35445;DHT22;21562;49.476;6.086;2023-07-22T14:56:18;24.40;91.80
35445;DHT22;21562;49.476;6.086;2023-07-22T14:58:44;24.30;91.80
35445;DHT22;21562;49.476;6.086;2023-07-22T15:01:09;24.30;91.30
35445;DHT22;21562;49.476;6.086;2023-07-22T15:03:37;24.20;91.70
35445;DHT22;21562;49.476;6.086;2023-07-22T15:06:03;23.80;91.80
35445;DHT22;21562;49.476;6.086;2023-07-22T15:08:28;24.00;91.90
35445;DHT22;21562;49.476;6.086;2023-07-22T15:10:54;24.20;91.80
35445;DHT22;21562;49.476;6.086;2023-07-22T15:13:20;24.50;91.70
35445;DHT22;21562;49.476;6.086;2023-07-22T15:15:45;24.60;91.40
35445;DHT22;21562;49.476;6.086;2023-07-22T15:18:11;24.20;91.70
35445;DHT22;21562;49.476;6.086;2023-07-22T15:20:37;24.30;91.40
35445;DHT22;21562;49.476;6.086;2023-07-22T15:23:02;24.40;91.10
35445;DHT22;21562;49.476;6.086;2023-07-22T15:25:28;23.80;91.50
35445;DHT22;21562;49.476;6.086;2023-07-22T15:27:54;24.00;91.30
35445;DHT22;21562;49.476;6.086;2023-07-22T15:30:20;24.40;91.00
35445;DHT22;21562;49.476;6.086;2023-07-22T15:32:45;25.00;90.30
35445;DHT22;21562;49.476;6.086;2023-07-22T15:35:11;24.80;90.20
35445;DHT22;21562;49.476;6.086;2023-07-22T15:37:38;24.30;90.60
35445;DHT22;21562;49.476;6.086;2023-07-22T15:40:03;24.30;90.70